Time;durP1;ratioP1;P1;durP2;ratioP2;P2;SDS_P1;SDS_P2;PMS_P1;PMS_P2;Temp;Humidity;BMP_temperature;BMP_pressure;BME280_temperature;BME280_humidity;BME280_pressure;Samples;Min_cycle;Max_cycle;Signal;HPM_P1;HPM_P2
2024/01/20 00:01:49;;;;;;;51.30;21.97;;;-0.50;97.50;;;;;;5014470;28;20367;-81
2024/01/20 00:04:15;;;;;;;52.37;22.43;;;-0.40;97.60;;;;;;5014391;28;20025;-81
2024/01/20 00:06:40;;;;;;;47.43;20.73;;;-0.50;97.60;;;;;;5015480;28;20128;-82
2024/01/20 00:09:07;;;;;;;49.10;21.33;;;-0.50;97.60;;;;;;5014020;28;20028;-81
2024/01/20 00:11:32;;;;;;;45.73;21.30;;;-0.50;97.60;;;;;;5014072;28;20021;-81
2024/01/20 00:13:58;;;;;;;42.67;20.20;;;-0.40;97.80;;;;;;5015870;28;20343;-81
2024/01/20 00:16:24;;;;;;;49.57;21.80;;;-0.50;97.80;;;;;;5013990;28;20079;-82
2024/01/20 00:18:49;;;;;;;47.40;20.07;;;-0.50;97.80;;;;;;5013946;28;20061;-82
2024/01/20 00:21:15;;;;;;;49.50;21.87;;;-0.50;97.90;;;;;;5014018;28;20169;-81
2024/01/20 00:23:40;;;;;;;54.07;22.40;;;-0.50;98.00;;;;;;5014901;28;20034;-81
2024/01/20 00:26:07;;;;;;;49.13;21.23;;;-0.30;98.10;;;;;;5015117;28;20073;-81
2024/01/20 00:28:33;;;;;;;52.50;22.30;;;-0.50;98.30;;;;;;5015179;28;20092;-81
2024/01/20 00:30:59;;;;;;;56.77;23.47;;;-0.50;98.30;;;;;;5015138;28;20055;-81
2024/01/20 00:33:25;;;;;;;51.07;24.00;;;-0.50;98.30;;;;;;5014898;28;20033;-82
2024/01/20 00:35:51;;;;;;;56.73;22.70;;;-0.50;98.80;;;;;;5014478;28;20029;-81
2024/01/20 00:38:17;;;;;;;47.77;20.53;;;-0.50;98.70;;;;;;5013657;28;20026;-81
2024/01/20 00:40:43;;;;;;;54.20;23.27;;;-0.50;98.70;;;;;;5013806;28;20485;-81
2024/01/20 00:43:08;;;;;;;55.40;23.57;;;-0.50;99.00;;;;;;5013313;28;20026;-81
2024/01/20 00:45:34;;;;;;;61.03;23.73;;;-0.50;99.30;;;;;;5013643;28;20552;-81
2024/01/20 00:48:00;;;;;;;49.60;22.03;;;-0.50;99.40;;;;;;5013377;28;20488;-81
2024/01/20 00:50:26;;;;;;;54.60;24.13;;;-0.60;99.30;;;;;;5013132;28;20022;-82
2024/01/20 00:52:51;;;;;;;54.30;24.57;;;-0.50;99.50;;;;;;5013458;28;20026;-81
2024/01/20 00:55:17;;;;;;;54.07;22.63;;;-0.50;99.90;;;;;;5014717;28;20029;-81
2024/01/20 00:57:44;;;;;;;60.40;23.13;;;-0.40;99.90;;;;;;5014673;28;20033;-81
2024/01/20 01:00:10;;;;;;;53.57;22.83;;;-0.40;99.90;;;;;;5013391;28;20026;-81
2024/01/20 01:02:37;;;;;;;52.10;23.43;;;-0.40;99.90;;;;;;5013294;28;20021;-81
2024/01/20 01:05:03;;;;;;;55.03;22.30;;;-0.40;99.90;;;;;;5013265;28;20026;-81
2024/01/20 01:07:29;;;;;;;51.77;21.33;;;-0.30;99.90;;;;;;5014033;28;20382;-81
2024/01/20 01:09:55;;;;;;;50.53;22.57;;;-0.30;99.90;;;;;;5012388;28;20026;-81
2024/01/20 01:12:20;;;;;;;56.83;21.90;;;-0.30;99.90;;;;;;5014242;28;20033;-81
2024/01/20 01:14:46;;;;;;;52.70;22.27;;;-0.20;99.90;;;;;;5014256;28;20434;-81
2024/01/20 01:17:12;;;;;;;58.30;23.60;;;-0.20;99.90;;;;;;5014569;28;20030;-81
2024/01/20 01:19:37;;;;;;;57.90;24.40;;;-0.20;99.90;;;;;;5014078;28;20026;-81
2024/01/20 01:22:03;;;;;;;54.27;22.40;;;-0.20;99.90;;;;;;5013957;28;20101;-81
2024/01/20 01:24:29;;;;;;;60.57;24.23;;;-0.20;99.90;;;;;;5014076;28;20022;-81
2024/01/20 01:26:54;;;;;;;57.50;23.93;;;-0.10;99.90;;;;;;5013960;28;20406;-82
2024/01/20 01:29:20;;;;;;;59.17;24.90;;;-0.10;99.90;;;;;;5014557;28;20026;-81
2024/01/20 01:31:45;;;;;;;58.73;23.80;;;-0.10;99.90;;;;;;5012416;28;20030;-81
2024/01/20 01:34:11;;;;;;;49.77;22.53;;;-0.10;99.90;;;;;;5012567;28;20113;-81
2024/01/20 01:36:39;;;;;;;53.10;21.50;;;-0.10;99.90;;;;;;5012680;28;20124;-82
2024/01/20 01:39:05;;;;;;;54.33;22.77;;;-0.10;99.90;;;;;;5013720;28;20030;-81
2024/01/20 01:41:30;;;;;;;56.03;24.40;;;-0.10;99.90;;;;;;5013833;28;20030;-82
2024/01/20 01:43:57;;;;;;;49.37;21.70;;;-0.10;99.90;;;;;;5013772;28;20025;-81
2024/01/20 01:46:23;;;;;;;54.67;23.20;;;-0.10;99.90;;;;;;5013835;28;20022;-81
2024/01/20 01:48:49;;;;;;;55.17;22.30;;;-0.10;99.90;;;;;;5013500;28;20029;-81
2024/01/20 01:51:15;;;;;;;52.07;20.93;;;-0.10;99.90;;;;;;5012333;28;20018;-81
2024/01/20 01:53:41;;;;;;;55.40;23.23;;;-0.10;99.90;;;;;;5013767;28;20025;-81
2024/01/20 01:56:08;;;;;;;53.87;22.63;;;-0.10;99.90;;;;;;5012272;28;20022;-81
2024/01/20 01:58:33;;;;;;;58.87;23.83;;;-0.10;99.90;;;;;;5012232;28;20033;-81
2024/01/20 02:01:00;;;;;;;50.33;24.10;;;-0.10;99.90;;;;;;5013344;28;20022;-81
2024/01/20 02:03:26;;;;;;;58.57;24.87;;;-0.10;99.90;;;;;;5012285;28;20024;-82
2024/01/20 02:05:52;;;;;;;54.77;23.53;;;0.00;99.90;;;;;;5013605;28;20554;-81
2024/01/20 02:08:20;;;;;;;56.60;22.90;;;-0.10;99.90;;;;;;5012254;28;20064;-82
2024/01/20 02:10:48;;;;;;;58.60;23.07;;;0.00;99.90;;;;;;5012059;28;20450;-82
2024/01/20 02:13:14;;;;;;;54.73;22.97;;;-0.10;99.90;;;;;;5012117;28;20033;-81
2024/01/20 02:15:40;;;;;;;49.87;21.37;;;-0.10;99.90;;;;;;5013420;28;20394;-81
2024/01/20 02:18:06;;;;;;;59.70;23.50;;;-0.20;99.90;;;;;;5012325;28;20037;-82
2024/01/20 02:20:31;;;;;;;43.67;19.53;;;-0.20;99.90;;;;;;5013022;28;20030;-82
2024/01/20 02:22:57;;;;;;;55.23;22.23;;;-0.20;99.90;;;;;;5012932;28;20042;-81
2024/01/20 02:25:23;;;;;;;56.40;21.10;;;-0.20;99.90;;;;;;5011786;28;20042;-81
2024/01/20 02:27:48;;;;;;;49.33;21.47;;;-0.20;99.90;;;;;;5012020;28;20114;-81
2024/01/20 02:30:14;;;;;;;50.40;19.43;;;-0.20;99.90;;;;;;5013243;28;20029;-81
2024/01/20 02:32:40;;;;;;;49.93;21.40;;;-0.20;99.90;;;;;;5012857;28;20470;-81
2024/01/20 02:35:06;;;;;;;51.83;20.83;;;-0.20;99.90;;;;;;5011757;28;20034;-81
2024/01/20 02:37:32;;;;;;;47.97;20.40;;;-0.20;99.90;;;;;;5013167;28;20104;-81
2024/01/20 02:39:58;;;;;;;46.70;20.17;;;-0.20;99.90;;;;;;5013068;28;20026;-81
2024/01/20 02:42:24;;;;;;;48.60;20.17;;;-0.20;99.90;;;;;;5011981;28;20021;-82
2024/01/20 02:44:50;;;;;;;51.17;22.27;;;-0.20;99.90;;;;;;5013063;28;20022;-81
2024/01/20 02:47:16;;;;;;;52.87;21.17;;;-0.20;99.90;;;;;;5012727;28;20470;-81
2024/01/20 02:49:42;;;;;;;51.77;21.00;;;-0.20;99.90;;;;;;5011841;28;20080;-81
2024/01/20 02:52:08;;;;;;;47.50;19.90;;;-0.20;99.90;;;;;;5012992;28;20030;-81
2024/01/20 02:54:33;;;;;;;49.60;19.80;;;-0.20;99.90;;;;;;5012934;28;20036;-81
2024/01/20 02:56:59;;;;;;;46.03;21.00;;;-0.30;99.90;;;;;;5013093;28;20061;-81
2024/01/20 02:59:25;;;;;;;48.07;17.73;;;-0.20;99.90;;;;;;5013005;28;20033;-81
2024/01/20 03:01:50;;;;;;;40.70;17.80;;;-0.30;99.90;;;;;;5012660;28;20034;-81
2024/01/20 03:04:16;;;;;;;39.37;16.90;;;-0.40;99.90;;;;;;5013158;28;20478;-81
2024/01/20 03:06:42;;;;;;;41.83;18.07;;;-0.30;99.90;;;;;;5011584;28;20382;-81
2024/01/20 03:09:07;;;;;;;43.90;17.97;;;-0.40;99.90;;;;;;5012817;28;20029;-81
2024/01/20 03:11:35;;;;;;;45.60;18.30;;;-0.40;99.90;;;;;;5011663;28;20497;-81
2024/01/20 03:14:01;;;;;;;46.33;19.57;;;-0.40;99.90;;;;;;5012525;28;20022;-81
2024/01/20 03:16:27;;;;;;;45.83;18.87;;;-0.40;99.90;;;;;;5012109;28;20101;-81
2024/01/20 03:18:52;;;;;;;44.10;18.47;;;-0.40;99.90;;;;;;5012833;28;20593;-81
2024/01/20 03:21:18;;;;;;;48.73;18.90;;;-0.40;99.90;;;;;;5012799;28;20421;-81
2024/01/20 03:23:44;;;;;;;51.43;20.97;;;-0.40;99.90;;;;;;5028015;28;20434;-81
2024/01/20 03:26:10;;;;;;;44.57;18.93;;;-0.40;99.90;;;;;;5012766;28;20065;-81
2024/01/20 03:28:36;;;;;;;50.07;19.83;;;-0.40;99.90;;;;;;5012311;28;20022;-81
2024/01/20 03:31:02;;;;;;;43.47;17.63;;;-0.50;99.90;;;;;;5012635;28;20488;-81
2024/01/20 03:33:28;;;;;;;47.37;18.90;;;-0.50;99.90;;;;;;5014632;28;20026;-80
2024/01/20 03:35:53;;;;;;;44.90;18.03;;;-0.50;99.90;;;;;;5014980;28;20076;-82
2024/01/20 03:38:19;;;;;;;42.03;16.90;;;-0.60;99.90;;;;;;5014752;28;20079;-81
2024/01/20 03:40:45;;;;;;;41.80;17.20;;;-0.60;99.90;;;;;;5014701;28;20034;-81
2024/01/20 03:43:11;;;;;;;45.00;18.50;;;-0.70;99.90;;;;;;5014560;28;20041;-81
2024/01/20 03:45:43;;;;;;;38.90;15.93;;;-0.70;99.90;;;;;;5015936;28;20029;-80
2024/01/20 03:48:09;;;;;;;48.17;17.87;;;-0.70;99.90;;;;;;5014537;28;20492;-81
2024/01/20 03:50:35;;;;;;;40.63;16.60;;;-0.70;99.90;;;;;;5016057;28;20381;-81
2024/01/20 03:53:00;;;;;;;42.30;15.93;;;-0.70;99.90;;;;;;5015973;28;20026;-80
2024/01/20 03:55:26;;;;;;;45.30;16.83;;;-0.70;99.90;;;;;;5015741;28;20022;-81
2024/01/20 03:57:51;;;;;;;43.90;17.27;;;-0.80;99.90;;;;;;5015874;28;20065;-80
2024/01/20 04:00:17;;;;;;;46.83;17.77;;;-0.80;99.90;;;;;;5016296;28;20054;-81
2024/01/20 04:02:43;;;;;;;40.73;15.90;;;-0.80;99.90;;;;;;5016079;28;20475;-81
2024/01/20 04:05:09;;;;;;;41.70;16.63;;;-0.80;99.90;;;;;;5016120;28;20018;-81
2024/01/20 04:07:37;;;;;;;41.13;16.30;;;-0.90;99.90;;;;;;5015429;28;20693;-81
2024/01/20 04:10:03;;;;;;;41.93;16.27;;;-0.80;99.90;;;;;;5015436;28;20022;-81
2024/01/20 04:12:29;;;;;;;43.77;17.00;;;-0.90;99.90;;;;;;5014224;28;20033;-81
2024/01/20 04:14:58;;;;;;;41.80;18.10;;;-0.90;99.90;;;;;;5038520;28;20029;-81
2024/01/20 04:17:24;;;;;;;50.20;19.33;;;-0.80;99.90;;;;;;5035206;28;20083;-81
2024/01/20 04:19:50;;;;;;;47.93;17.87;;;-0.70;99.90;;;;;;5035064;28;20029;-81
2024/01/20 04:22:15;;;;;;;45.43;18.33;;;-0.80;99.90;;;;;;5035046;28;20041;-80
2024/01/20 04:24:41;;;;;;;46.60;18.70;;;-0.60;99.90;;;;;;5033528;28;20071;-81
2024/01/20 04:27:07;;;;;;;47.57;19.20;;;-0.70;99.90;;;;;;5033745;28;20068;-81
2024/01/20 04:29:33;;;;;;;42.50;17.57;;;-0.70;99.90;;;;;;5034812;28;20025;-81
2024/01/20 04:31:59;;;;;;;36.97;14.67;;;-0.60;99.90;;;;;;5034536;28;20075;-81
2024/01/20 04:34:24;;;;;;;44.23;17.17;;;-0.70;99.90;;;;;;5033386;28;20108;-81
2024/01/20 04:36:50;;;;;;;38.07;14.90;;;-0.70;99.90;;;;;;5034908;28;20079;-80
2024/01/20 04:39:16;;;;;;;41.90;16.57;;;-0.70;99.90;;;;;;5033285;28;20548;-81
2024/01/20 04:41:41;;;;;;;45.17;15.57;;;-0.70;99.90;;;;;;5034858;28;20100;-80
2024/01/20 04:44:07;;;;;;;39.50;17.10;;;-0.70;99.90;;;;;;5033105;28;20018;-81
2024/01/20 04:46:32;;;;;;;36.03;15.90;;;-0.70;99.90;;;;;;5032684;28;20018;-81
2024/01/20 04:48:58;;;;;;;41.53;16.27;;;-0.70;99.90;;;;;;5029792;28;20486;-81
2024/01/20 04:51:24;;;;;;;40.10;16.43;;;-0.70;99.90;;;;;;5013629;28;20517;-81
2024/01/20 04:53:49;;;;;;;39.83;15.60;;;-0.70;99.90;;;;;;5013550;28;20446;-81
2024/01/20 04:56:22;;;;;;;40.83;17.10;;;-0.80;99.90;;;;;;5013473;28;20429;-81
2024/01/20 04:58:49;;;;;;;42.47;16.37;;;-0.80;99.90;;;;;;5013341;28;20033;-81
2024/01/20 05:01:15;;;;;;;35.87;14.33;;;-0.80;99.90;;;;;;5014611;28;20033;-82
2024/01/20 05:03:41;;;;;;;41.03;16.07;;;-0.80;99.90;;;;;;5014184;28;20038;-81
2024/01/20 05:06:06;;;;;;;45.40;18.27;;;-0.90;99.90;;;;;;5013353;28;20030;-81
2024/01/20 05:08:32;;;;;;;40.33;16.30;;;-0.90;99.90;;;;;;5013184;28;20053;-81
2024/01/20 05:10:58;;;;;;;38.87;15.90;;;-0.90;99.90;;;;;;5014467;28;20489;-81
2024/01/20 05:13:23;;;;;;;34.60;14.37;;;-0.90;99.90;;;;;;5013191;28;20597;-81
2024/01/20 05:15:49;;;;;;;37.47;15.77;;;-0.90;99.90;;;;;;5012948;28;20018;-81
2024/01/20 05:18:15;;;;;;;34.37;15.43;;;-1.00;99.90;;;;;;5012878;28;20026;-81
2024/01/20 05:20:40;;;;;;;38.57;15.60;;;-1.00;99.90;;;;;;5013057;28;20030;-81
2024/01/20 05:23:06;;;;;;;37.73;15.27;;;-1.00;99.90;;;;;;5012794;28;20482;-81
2024/01/20 05:25:32;;;;;;;36.20;14.37;;;-1.00;99.90;;;;;;5012811;28;20049;-81
2024/01/20 05:27:57;;;;;;;37.03;14.63;;;-1.00;99.90;;;;;;5012509;28;20018;-81
2024/01/20 05:30:23;;;;;;;39.20;15.80;;;-1.00;99.90;;;;;;5012940;28;20018;-81
2024/01/20 05:32:49;;;;;;;35.23;14.17;;;-1.00;99.90;;;;;;5014008;28;20021;-82
2024/01/20 05:35:15;;;;;;;37.47;13.63;;;-1.00;99.90;;;;;;5013936;28;20367;-81
2024/01/20 05:37:41;;;;;;;33.13;13.80;;;-1.00;99.90;;;;;;5012648;28;20026;-81
2024/01/20 05:40:07;;;;;;;36.53;13.10;;;-1.10;99.90;;;;;;5012443;28;20058;-81
2024/01/20 05:42:32;;;;;;;36.83;14.87;;;-1.00;99.90;;;;;;5028954;28;20529;-81
2024/01/20 05:44:59;;;;;;;43.43;15.83;;;-1.00;99.90;;;;;;5014306;28;20273;-81
2024/01/20 05:47:25;;;;;;;39.60;16.40;;;-1.00;99.90;;;;;;5012618;28;20022;-81
2024/01/20 05:49:51;;;;;;;36.37;14.67;;;-1.00;99.90;;;;;;5014087;28;20057;-81
2024/01/20 05:52:17;;;;;;;39.53;16.10;;;-1.00;99.90;;;;;;5012131;28;20022;-82
2024/01/20 05:54:42;;;;;;;35.37;15.10;;;-1.00;99.90;;;;;;5011808;28;20069;-81
2024/01/20 05:57:08;;;;;;;40.40;14.73;;;-1.10;99.90;;;;;;5012304;28;20482;-81
2024/01/20 05:59:34;;;;;;;37.00;14.33;;;-1.00;99.90;;;;;;5012524;28;20026;-81
2024/01/20 06:02:00;;;;;;;40.20;15.43;;;-1.00;99.90;;;;;;5012428;28;20385;-82
2024/01/20 06:04:26;;;;;;;37.10;14.63;;;-1.00;99.90;;;;;;5013371;28;20425;-80
2024/01/20 06:06:51;;;;;;;35.83;14.40;;;-1.00;99.90;;;;;;5012116;28;20474;-81
2024/01/20 06:09:17;;;;;;;37.70;14.57;;;-1.00;99.90;;;;;;5012270;28;20084;-81
2024/01/20 06:11:43;;;;;;;36.23;15.43;;;-1.00;99.90;;;;;;5011812;28;20080;-81
2024/01/20 06:14:08;;;;;;;41.23;16.00;;;-1.00;99.90;;;;;;5012079;28;20033;-80
2024/01/20 06:16:38;;;;;;;31.27;13.87;;;-0.90;99.90;;;;;;5013066;28;20045;-80
2024/01/20 06:19:04;;;;;;;39.43;14.73;;;-1.00;99.90;;;;;;5014580;28;20493;-80
2024/01/20 06:21:30;;;;;;;37.43;15.40;;;-1.00;99.90;;;;;;5027812;28;20049;-82
2024/01/20 06:23:55;;;;;;;34.83;14.93;;;-1.00;99.90;;;;;;5032678;28;20052;-80
2024/01/20 06:26:21;;;;;;;36.97;15.60;;;-1.00;99.90;;;;;;5031445;28;20049;-82
2024/01/20 06:28:47;;;;;;;35.13;14.60;;;-0.90;99.90;;;;;;5032419;28;20029;-80
2024/01/20 06:31:26;;;;;;;38.00;14.87;;;-1.00;99.90;;;;;;5021672;28;20060;-82
2024/01/20 06:33:53;;;;;;;41.23;16.63;;;-1.00;99.90;;;;;;5032465;28;20021;-82
2024/01/20 06:36:21;;;;;;;41.93;15.27;;;-1.00;99.90;;;;;;5026404;28;20459;-81
2024/01/20 06:38:47;;;;;;;36.00;14.83;;;-0.90;99.90;;;;;;5013071;28;20470;-81
2024/01/20 06:41:14;;;;;;;34.50;15.10;;;-0.90;99.90;;;;;;5013095;28;20073;-81
2024/01/20 06:43:39;;;;;;;38.43;16.80;;;-0.90;99.90;;;;;;5013050;28;20776;-81
2024/01/20 06:46:05;;;;;;;38.77;15.10;;;-0.90;99.90;;;;;;5011818;28;20029;-81
2024/01/20 06:48:33;;;;;;;39.13;14.10;;;-0.90;99.90;;;;;;5012746;28;20026;-81
2024/01/20 06:51:00;;;;;;;34.60;14.30;;;-0.90;99.90;;;;;;5011634;28;20564;-81
2024/01/20 06:53:29;;;;;;;38.03;15.53;;;-0.90;99.90;;;;;;5011893;28;20657;-80
2024/01/20 06:55:55;;;;;;;35.10;14.80;;;-0.90;99.90;;;;;;5012801;28;20401;-82
2024/01/20 06:58:21;;;;;;;35.13;13.77;;;-0.80;99.90;;;;;;5011706;28;20099;-81
2024/01/20 07:00:47;;;;;;;35.20;14.33;;;-0.90;99.90;;;;;;5013118;28;20057;-81
2024/01/20 07:03:16;;;;;;;36.03;15.17;;;-0.90;99.90;;;;;;5011484;28;20486;-81
2024/01/20 07:05:42;;;;;;;35.67;14.40;;;-0.90;99.90;;;;;;5033655;28;20041;-81
2024/01/20 07:08:09;;;;;;;35.07;13.33;;;-0.90;99.90;;;;;;5034379;28;20025;-82
2024/01/20 07:10:35;;;;;;;38.33;14.23;;;-0.90;99.90;;;;;;5036400;28;20024;-81
2024/01/20 07:13:00;;;;;;;35.23;12.57;;;-0.90;99.90;;;;;;5034967;28;20025;-82
2024/01/20 07:15:26;;;;;;;36.60;13.80;;;-0.90;99.90;;;;;;5018789;28;20076;-82
2024/01/20 07:17:56;;;;;;;37.83;14.17;;;-0.90;99.90;;;;;;5034808;28;20053;-82
2024/01/20 07:20:22;;;;;;;35.43;13.77;;;-0.90;99.90;;;;;;5025055;28;20041;-82
2024/01/20 07:22:49;;;;;;;36.47;14.10;;;-0.90;99.90;;;;;;5026853;28;20334;-82
2024/01/20 07:25:15;;;;;;;34.73;13.23;;;-0.90;99.90;;;;;;5025482;28;20041;-81
2024/01/20 07:27:41;;;;;;;37.07;15.70;;;-0.80;99.90;;;;;;5024091;28;20374;-81
2024/01/20 07:30:08;;;;;;;34.10;13.50;;;-0.90;99.90;;;;;;5025534;28;20049;-83
2024/01/20 07:32:34;;;;;;;37.10;14.03;;;-0.90;99.90;;;;;;5025175;28;20025;-82
2024/01/20 07:34:59;;;;;;;36.07;13.27;;;-0.90;99.90;;;;;;5023776;28;20029;-82
2024/01/20 07:37:25;;;;;;;34.43;13.30;;;-0.90;99.90;;;;;;5028069;28;20453;-82
2024/01/20 07:39:51;;;;;;;35.03;14.47;;;-0.90;99.90;;;;;;5027404;28;20397;-82
2024/01/20 07:42:16;;;;;;;35.90;15.50;;;-0.90;99.90;;;;;;5035848;28;20033;-82
2024/01/20 07:44:42;;;;;;;37.97;15.33;;;-0.80;99.90;;;;;;5035708;28;20026;-81
2024/01/20 07:47:08;;;;;;;38.57;15.80;;;-0.90;99.90;;;;;;5035795;28;20609;-82
2024/01/20 07:49:33;;;;;;;33.27;15.10;;;-0.90;99.90;;;;;;5025874;28;20025;-82
2024/01/20 07:51:59;;;;;;;35.57;14.67;;;-0.80;99.90;;;;;;5032889;28;20031;-82
2024/01/20 07:54:25;;;;;;;40.53;15.20;;;-0.70;99.90;;;;;;5032255;28;20496;-81
2024/01/20 07:56:50;;;;;;;35.43;15.17;;;-0.70;99.90;;;;;;5034311;28;20477;-82
2024/01/20 07:59:16;;;;;;;33.30;13.97;;;-0.60;99.90;;;;;;5033975;28;20029;-82
2024/01/20 08:01:42;;;;;;;36.33;13.53;;;-0.60;99.90;;;;;;5035272;28;20049;-82
2024/01/20 08:04:08;;;;;;;37.40;14.37;;;-0.50;99.90;;;;;;5035556;28;20026;-82
2024/01/20 08:06:36;;;;;;;33.93;14.70;;;-0.50;99.90;;;;;;5033958;28;20401;-83
2024/01/20 08:09:02;;;;;;;36.23;15.50;;;-0.40;99.90;;;;;;5034107;28;20033;-82
2024/01/20 08:11:28;;;;;;;35.53;13.50;;;-0.40;99.90;;;;;;5034364;28;20367;-82
2024/01/20 08:13:55;;;;;;;36.77;15.83;;;-0.20;99.90;;;;;;5034856;28;20034;-82
2024/01/20 08:16:21;;;;;;;35.70;14.83;;;-0.20;99.90;;;;;;5035140;28;20079;-82
2024/01/20 08:18:46;;;;;;;37.87;14.97;;;-0.20;99.90;;;;;;5033410;28;20423;-83
2024/01/20 08:21:12;;;;;;;38.50;15.03;;;-0.20;99.90;;;;;;5033744;28;20045;-82
2024/01/20 08:23:39;;;;;;;35.83;15.40;;;0.00;99.90;;;;;;5034833;28;20405;-82
2024/01/20 08:26:04;;;;;;;32.93;14.13;;;0.00;99.90;;;;;;5033533;28;20045;-82
2024/01/20 08:28:30;;;;;;;36.03;15.67;;;0.00;99.90;;;;;;5034791;28;20036;-82
2024/01/20 08:30:56;;;;;;;35.53;15.57;;;0.10;99.90;;;;;;5033767;28;20038;-83
2024/01/20 08:33:21;;;;;;;37.63;16.00;;;0.20;99.90;;;;;;5034577;28;20025;-81
2024/01/20 08:35:49;;;;;;;36.87;16.33;;;0.20;99.90;;;;;;5034766;28;20026;-82
2024/01/20 08:38:15;;;;;;;39.70;15.97;;;0.30;99.90;;;;;;5033573;28;20017;-82
2024/01/20 08:40:40;;;;;;;36.50;15.87;;;0.50;99.90;;;;;;5023530;28;20163;-82
2024/01/20 08:43:06;;;;;;;34.70;17.10;;;0.40;99.90;;;;;;5025272;28;20104;-82
2024/01/20 08:45:32;;;;;;;37.47;16.73;;;0.50;99.90;;;;;;5022784;28;20381;-82
2024/01/20 08:47:58;;;;;;;42.33;18.63;;;0.50;99.90;;;;;;5019551;28;20029;-86
2024/01/20 08:50:24;;;;;;;38.27;16.33;;;0.60;99.90;;;;;;5013571;28;20034;-82
2024/01/20 08:52:49;;;;;;;37.97;16.13;;;0.60;99.90;;;;;;5014682;28;20052;-82
2024/01/20 08:55:16;;;;;;;38.27;15.90;;;0.70;99.90;;;;;;5014608;28;20026;-82
2024/01/20 08:57:42;;;;;;;34.80;15.20;;;0.70;99.90;;;;;;5013238;28;20072;-82
2024/01/20 09:00:09;;;;;;;36.47;17.53;;;0.80;99.90;;;;;;5028769;28;20433;-82
2024/01/20 09:02:36;;;;;;;37.47;16.67;;;0.80;99.90;;;;;;5033050;28;20056;-83
2024/01/20 09:05:02;;;;;;;34.37;16.50;;;0.90;99.90;;;;;;5015532;28;20048;-83
2024/01/20 09:07:28;;;;;;;35.60;16.00;;;0.90;99.90;;;;;;5013385;28;20026;-84
2024/01/20 09:09:56;;;;;;;37.93;17.17;;;0.90;99.90;;;;;;5014614;28;20496;-84
2024/01/20 09:12:22;;;;;;;35.03;15.73;;;0.90;99.90;;;;;;5013005;28;20029;-84
2024/01/20 09:14:48;;;;;;;35.20;16.13;;;0.90;99.90;;;;;;5013282;28;20026;-84
2024/01/20 09:17:13;;;;;;;42.23;18.87;;;0.90;99.90;;;;;;5014071;28;20477;-83
2024/01/20 09:19:39;;;;;;;34.20;15.80;;;0.90;99.90;;;;;;5014157;28;20083;-83
2024/01/20 09:22:04;;;;;;;36.17;15.90;;;0.90;99.90;;;;;;5012754;28;20033;-83
2024/01/20 09:24:31;;;;;;;31.07;14.17;;;0.90;99.90;;;;;;5012822;28;20050;-83
2024/01/20 09:26:57;;;;;;;37.03;16.60;;;1.00;99.90;;;;;;5013741;28;20449;-83
2024/01/20 09:29:23;;;;;;;33.23;14.83;;;1.00;99.90;;;;;;5012202;28;20065;-83
2024/01/20 09:31:48;;;;;;;32.60;14.50;;;1.00;99.90;;;;;;5013861;28;20053;-82
2024/01/20 09:34:14;;;;;;;35.73;16.63;;;1.10;99.90;;;;;;5013960;28;20469;-83
2024/01/20 09:36:39;;;;;;;37.00;16.90;;;1.10;99.90;;;;;;5012815;28;20479;-84
2024/01/20 09:39:05;;;;;;;32.40;15.53;;;1.10;99.90;;;;;;5013933;28;20030;-82
2024/01/20 09:41:31;;;;;;;32.67;15.23;;;1.20;99.90;;;;;;5012576;28;20026;-82
2024/01/20 09:43:58;;;;;;;34.40;16.20;;;1.10;99.90;;;;;;5014206;28;20053;-82
2024/01/20 09:46:24;;;;;;;35.10;14.17;;;1.20;99.90;;;;;;5012631;28;20017;-82
2024/01/20 09:48:55;;;;;;;32.03;14.93;;;1.20;99.90;;;;;;5013495;28;20367;-83
2024/01/20 09:51:24;;;;;;;31.83;14.40;;;1.30;99.90;;;;;;5014108;28;20179;-82
2024/01/20 09:53:55;;;;;;;31.07;14.33;;;1.30;99.90;;;;;;5012382;28;20030;-83
2024/01/20 09:56:21;;;;;;;26.97;13.10;;;1.40;99.90;;;;;;5012103;28;20029;-83
2024/01/20 09:58:48;;;;;;;32.60;15.13;;;1.40;99.90;;;;;;5013710;28;20057;-83
2024/01/20 10:01:14;;;;;;;31.20;14.80;;;1.60;99.90;;;;;;5012457;28;20051;-83
2024/01/20 10:03:42;;;;;;;31.47;14.37;;;1.50;99.90;;;;;;5013138;28;20072;-83
2024/01/20 10:06:07;;;;;;;30.10;14.13;;;1.60;99.90;;;;;;5012380;28;20021;-83
2024/01/20 10:08:33;;;;;;;28.10;13.53;;;1.70;99.90;;;;;;5013491;28;20018;-82
2024/01/20 10:11:05;;;;;;;31.83;15.87;;;1.70;99.90;;;;;;5012308;28;20030;-82
2024/01/20 10:13:31;;;;;;;32.83;15.47;;;1.60;99.90;;;;;;5013552;28;20026;-84
2024/01/20 10:15:56;;;;;;;34.03;16.50;;;1.70;99.90;;;;;;5013524;28;20054;-82
2024/01/20 10:18:22;;;;;;;38.50;15.17;;;1.70;99.90;;;;;;5013536;28;20076;-82
2024/01/20 10:20:48;;;;;;;34.83;15.63;;;1.70;99.90;;;;;;5013259;28;20021;-83
2024/01/20 10:23:14;;;;;;;28.40;14.90;;;1.70;99.90;;;;;;5013143;28;20367;-81
2024/01/20 10:25:39;;;;;;;33.90;15.60;;;1.70;99.90;;;;;;5011705;28;20482;-83
2024/01/20 10:28:07;;;;;;;32.00;16.13;;;1.70;99.90;;;;;;5013137;28;20034;-83
2024/01/20 10:30:33;;;;;;;33.27;14.90;;;1.70;99.90;;;;;;5012799;28;20037;-82
2024/01/20 10:32:59;;;;;;;36.30;16.30;;;1.70;99.90;;;;;;5012978;28;20057;-82
2024/01/20 10:35:24;;;;;;;36.43;16.07;;;1.60;99.90;;;;;;5013344;28;20432;-82
2024/01/20 10:37:51;;;;;;;37.63;16.37;;;1.60;99.90;;;;;;5012892;28;20029;-83
2024/01/20 10:40:17;;;;;;;33.80;16.60;;;1.60;99.90;;;;;;5013707;28;20414;-82
2024/01/20 10:42:45;;;;;;;33.93;15.17;;;1.70;99.90;;;;;;5015649;28;20030;-83
2024/01/20 10:45:18;;;;;;;32.83;14.53;;;1.70;99.90;;;;;;5017042;28;20030;-82
2024/01/20 10:48:15;;;;;;;31.20;15.73;;;1.70;99.90;;;;;;5017110;28;20096;-82
2024/01/20 10:50:48;;;;;;;30.40;14.97;;;1.70;99.90;;;;;;5015956;28;20050;-81
2024/01/20 10:53:14;;;;;;;32.43;14.30;;;1.70;99.90;;;;;;5016387;28;20030;-82
2024/01/20 10:55:42;;;;;;;34.37;14.97;;;1.80;99.90;;;;;;5016674;28;20034;-82
2024/01/20 10:58:10;;;;;;;32.90;15.60;;;1.80;99.90;;;;;;5017188;28;20030;-83
2024/01/20 11:00:39;;;;;;;33.07;15.57;;;1.80;99.90;;;;;;5016773;28;20383;-82
2024/01/20 11:03:06;;;;;;;31.80;15.50;;;1.90;99.90;;;;;;5015742;28;20029;-82
2024/01/20 11:05:32;;;;;;;29.63;15.10;;;1.90;99.90;;;;;;5016880;28;20022;-82
2024/01/20 11:08:06;;;;;;;35.23;15.83;;;1.90;99.90;;;;;;5016637;28;20033;-82
2024/01/20 11:10:43;;;;;;;28.30;14.63;;;2.00;99.90;;;;;;5016723;28;20026;-82
2024/01/20 11:13:14;;;;;;;36.57;16.67;;;2.00;99.90;;;;;;5015632;28;20506;-81
2024/01/20 11:15:41;;;;;;;31.83;16.33;;;2.00;99.90;;;;;;5015186;28;20490;-82
2024/01/20 11:18:17;;;;;;;35.10;17.00;;;2.00;99.90;;;;;;5016387;28;20418;-81
2024/01/20 11:20:56;;;;;;;31.63;15.87;;;2.10;99.90;;;;;;5016656;28;20018;-82
2024/01/20 11:23:22;;;;;;;31.57;16.23;;;2.10;99.90;;;;;;5016412;28;20025;-82
2024/01/20 11:25:47;;;;;;;33.10;15.67;;;2.10;99.90;;;;;;5016123;28;20056;-83
2024/01/20 11:28:42;;;;;;;33.90;16.47;;;2.10;99.90;;;;;;5016828;28;20493;-82
2024/01/20 11:31:18;;;;;;;32.90;16.07;;;2.10;99.90;;;;;;5016307;28;20018;-82
2024/01/20 11:33:45;;;;;;;32.97;15.17;;;2.10;99.90;;;;;;5014560;28;20061;-82
2024/01/20 11:36:11;;;;;;;30.23;14.77;;;2.10;99.90;;;;;;5016250;28;20042;-82
2024/01/20 11:38:37;;;;;;;29.17;13.87;;;2.10;99.90;;;;;;5016211;28;20402;-81
2024/01/20 11:41:03;;;;;;;29.63;14.60;;;2.20;99.90;;;;;;5015793;28;20100;-82
2024/01/20 11:43:29;;;;;;;31.67;14.67;;;2.50;99.90;;;;;;5015953;28;20065;-81
2024/01/20 11:45:57;;;;;;;30.30;14.33;;;2.80;99.90;;;;;;5016116;28;20026;-82
2024/01/20 11:48:24;;;;;;;28.77;13.37;;;2.90;99.90;;;;;;5014594;28;20018;-81
2024/01/20 11:50:51;;;;;;;26.77;13.80;;;3.10;99.90;;;;;;5015817;28;20367;-83
2024/01/20 11:53:17;;;;;;;26.13;12.87;;;3.20;99.90;;;;;;5014983;28;20030;-83
2024/01/20 11:56:00;;;;;;;25.67;13.40;;;3.30;99.90;;;;;;5014538;28;20030;-82
2024/01/20 11:58:27;;;;;;;28.33;14.07;;;3.40;99.90;;;;;;5014525;28;20029;-82
2024/01/20 12:00:53;;;;;;;27.40;13.93;;;3.40;99.90;;;;;;5015655;28;20026;-81
2024/01/20 12:03:20;;;;;;;28.67;13.77;;;3.50;99.90;;;;;;5014056;28;20041;-83
2024/01/20 12:05:46;;;;;;;32.73;14.87;;;3.70;99.90;;;;;;5014410;28;20076;-83
2024/01/20 12:08:12;;;;;;;26.43;13.97;;;3.70;99.90;;;;;;5015629;28;20034;-83
2024/01/20 12:10:38;;;;;;;24.20;12.87;;;3.90;99.90;;;;;;5014408;28;20113;-83
2024/01/20 12:13:04;;;;;;;24.37;13.83;;;4.30;99.90;;;;;;5015357;28;20026;-83
2024/01/20 12:15:36;;;;;;;26.07;13.70;;;4.60;99.90;;;;;;5015158;28;20121;-83
2024/01/20 12:18:02;;;;;;;22.83;12.73;;;4.90;99.90;;;;;;5015936;28;20104;-83
2024/01/20 12:20:28;;;;;;;24.00;13.13;;;5.10;99.90;;;;;;5015428;28;20029;-84
2024/01/20 12:23:00;;;;;;;21.63;12.30;;;5.40;99.90;;;;;;5015268;28;20037;-83
2024/01/20 12:25:26;;;;;;;22.07;12.67;;;5.80;99.90;;;;;;5014873;28;20115;-83
2024/01/20 12:27:52;;;;;;;23.23;12.77;;;6.30;99.90;;;;;;5015129;28;20024;-84